sensor_id;sensor_type;location;lat;lon;timestamp;P1;durP1;ratioP1;P2;durP2;ratioP2
15381;SDS011;7789;51.364;12.358;2022-11-09T00:00:24;1.63;;;1.23;;
15381;SDS011;7789;51.364;12.358;2022-11-09T00:05:58;2.38;;;1.40;;
15381;SDS011;7789;51.364;12.358;2022-11-09T00:11:29;2.25;;;1.35;;
15381;SDS011;7789;51.364;12.358;2022-11-09T00:16:51;2.35;;;1.20;;
15381;SDS011;7789;51.364;12.358;2022-11-09T00:22:21;2.45;;;1.20;;
15381;SDS011;7789;51.364;12.358;2022-11-09T00:27:58;1.30;;;1.17;;
15381;SDS011;7789;51.364;12.358;2022-11-09T00:33:20;2.45;;;1.50;;
15381;SDS011;7789;51.364;12.358;2022-11-09T00:38:46;2.03;;;1.17;;
15381;SDS011;7789;51.364;12.358;2022-11-09T00:44:10;2.33;;;1.45;;
15381;SDS011;7789;51.364;12.358;2022-11-09T00:49:34;2.63;;;1.50;;
15381;SDS011;7789;51.364;12.358;2022-11-09T00:55:03;1.63;;;1.20;;
15381;SDS011;7789;51.364;12.358;2022-11-09T01:00:27;1.88;;;1.20;;
15381;SDS011;7789;51.364;12.358;2022-11-09T01:06:00;2.60;;;1.60;;
15381;SDS011;7789;51.364;12.358;2022-11-09T01:11:26;2.90;;;1.60;;
15381;SDS011;7789;51.364;12.358;2022-11-09T01:16:51;2.03;;;1.48;;
15381;SDS011;7789;51.364;12.358;2022-11-09T01:22:15;2.40;;;1.50;;
15381;SDS011;7789;51.364;12.358;2022-11-09T01:27:50;2.33;;;1.48;;
15381;SDS011;7789;51.364;12.358;2022-11-09T01:33:14;4.13;;;1.90;;
15381;SDS011;7789;51.364;12.358;2022-11-09T01:38:48;2.03;;;1.48;;
15381;SDS011;7789;51.364;12.358;2022-11-09T01:44:18;1.40;;;1.30;;
15381;SDS011;7789;51.364;12.358;2022-11-09T01:49:45;2.75;;;1.50;;
15381;SDS011;7789;51.364;12.358;2022-11-09T01:55:12;1.88;;;1.58;;
15381;SDS011;7789;51.364;12.358;2022-11-09T02:00:42;1.52;;;1.30;;
15381;SDS011;7789;51.364;12.358;2022-11-09T02:06:11;2.08;;;1.63;;
15381;SDS011;7789;51.364;12.358;2022-11-09T02:11:41;2.05;;;1.40;;
15381;SDS011;7789;51.364;12.358;2022-11-09T02:17:08;2.65;;;1.50;;
15381;SDS011;7789;51.364;12.358;2022-11-09T02:23:01;3.97;;;1.48;;
15381;SDS011;7789;51.364;12.358;2022-11-09T02:28:27;3.35;;;1.67;;
15381;SDS011;7789;51.364;12.358;2022-11-09T02:33:54;3.88;;;1.48;;
15381;SDS011;7789;51.364;12.358;2022-11-09T02:39:31;3.45;;;1.45;;
15381;SDS011;7789;51.364;12.358;2022-11-09T02:45:09;3.00;;;1.67;;
15381;SDS011;7789;51.364;12.358;2022-11-09T02:50:38;1.77;;;1.27;;
15381;SDS011;7789;51.364;12.358;2022-11-09T02:56:25;5.43;;;2.00;;
15381;SDS011;7789;51.364;12.358;2022-11-09T03:02:03;1.80;;;1.50;;
15381;SDS011;7789;51.364;12.358;2022-11-09T03:07:38;3.90;;;1.60;;
15381;SDS011;7789;51.364;12.358;2022-11-09T03:13:09;2.45;;;1.60;;
15381;SDS011;7789;51.364;12.358;2022-11-09T03:19:03;3.78;;;1.40;;
15381;SDS011;7789;51.364;12.358;2022-11-09T03:24:44;2.83;;;1.50;;
15381;SDS011;7789;51.364;12.358;2022-11-09T03:30:44;1.77;;;1.40;;
15381;SDS011;7789;51.364;12.358;2022-11-09T03:36:30;3.40;;;1.45;;
15381;SDS011;7789;51.364;12.358;2022-11-09T03:42:04;2.55;;;1.38;;
15381;SDS011;7789;51.364;12.358;2022-11-09T03:47:37;2.95;;;1.40;;
15381;SDS011;7789;51.364;12.358;2022-11-09T03:53:03;2.22;;;1.50;;
15381;SDS011;7789;51.364;12.358;2022-11-09T03:58:36;5.57;;;1.40;;
15381;SDS011;7789;51.364;12.358;2022-11-09T04:04:32;4.32;;;1.75;;
15381;SDS011;7789;51.364;12.358;2022-11-09T04:10:04;3.20;;;1.38;;
15381;SDS011;7789;51.364;12.358;2022-11-09T04:15:35;2.78;;;2.00;;
15381;SDS011;7789;51.364;12.358;2022-11-09T04:26:46;3.20;;;1.80;;
15381;SDS011;7789;51.364;12.358;2022-11-09T04:32:17;2.53;;;1.48;;
15381;SDS011;7789;51.364;12.358;2022-11-09T04:38:04;2.00;;;1.60;;
15381;SDS011;7789;51.364;12.358;2022-11-09T04:43:28;2.67;;;1.63;;
15381;SDS011;7789;51.364;12.358;2022-11-09T04:48:53;2.40;;;1.58;;
15381;SDS011;7789;51.364;12.358;2022-11-09T04:54:28;2.25;;;1.38;;
15381;SDS011;7789;51.364;12.358;2022-11-09T05:00:08;3.60;;;1.85;;
15381;SDS011;7789;51.364;12.358;2022-11-09T05:05:32;5.95;;;1.95;;
15381;SDS011;7789;51.364;12.358;2022-11-09T05:11:13;2.50;;;1.50;;
15381;SDS011;7789;51.364;12.358;2022-11-09T05:16:38;1.88;;;1.60;;
15381;SDS011;7789;51.364;12.358;2022-11-09T05:28:23;1.75;;;1.63;;
15381;SDS011;7789;51.364;12.358;2022-11-09T05:33:57;3.10;;;1.73;;
15381;SDS011;7789;51.364;12.358;2022-11-09T05:39:39;2.55;;;1.48;;
15381;SDS011;7789;51.364;12.358;2022-11-09T05:45:07;2.15;;;1.50;;
15381;SDS011;7789;51.364;12.358;2022-11-09T05:50:51;2.30;;;1.83;;
15381;SDS011;7789;51.364;12.358;2022-11-09T05:56:17;1.70;;;1.40;;
15381;SDS011;7789;51.364;12.358;2022-11-09T06:01:44;5.18;;;1.60;;
15381;SDS011;7789;51.364;12.358;2022-11-09T06:07:08;2.47;;;1.60;;
15381;SDS011;7789;51.364;12.358;2022-11-09T06:12:33;2.25;;;1.60;;
15381;SDS011;7789;51.364;12.358;2022-11-09T06:18:07;3.60;;;1.83;;
15381;SDS011;7789;51.364;12.358;2022-11-09T06:23:34;3.83;;;1.83;;
15381;SDS011;7789;51.364;12.358;2022-11-09T06:28:57;4.40;;;2.00;;
15381;SDS011;7789;51.364;12.358;2022-11-09T06:34:34;2.08;;;1.65;;
15381;SDS011;7789;51.364;12.358;2022-11-09T06:40:03;3.00;;;1.95;;
15381;SDS011;7789;51.364;12.358;2022-11-09T06:46:01;3.00;;;2.03;;
15381;SDS011;7789;51.364;12.358;2022-11-09T06:58:08;5.72;;;2.15;;
15381;SDS011;7789;51.364;12.358;2022-11-09T07:03:43;4.43;;;1.90;;
15381;SDS011;7789;51.364;12.358;2022-11-09T07:09:24;3.10;;;1.70;;
15381;SDS011;7789;51.364;12.358;2022-11-09T07:14:57;5.25;;;1.67;;
15381;SDS011;7789;51.364;12.358;2022-11-09T07:20:30;2.85;;;1.88;;
15381;SDS011;7789;51.364;12.358;2022-11-09T07:25:56;2.90;;;2.47;;
15381;SDS011;7789;51.364;12.358;2022-11-09T07:31:31;3.08;;;2.20;;
15381;SDS011;7789;51.364;12.358;2022-11-09T07:37:01;4.80;;;1.92;;
15381;SDS011;7789;51.364;12.358;2022-11-09T07:42:35;2.80;;;1.60;;
15381;SDS011;7789;51.364;12.358;2022-11-09T07:48:02;1.98;;;1.60;;
15381;SDS011;7789;51.364;12.358;2022-11-09T07:53:39;3.70;;;2.22;;
15381;SDS011;7789;51.364;12.358;2022-11-09T07:59:05;3.00;;;1.80;;
15381;SDS011;7789;51.364;12.358;2022-11-09T08:04:37;4.85;;;1.70;;
15381;SDS011;7789;51.364;12.358;2022-11-09T08:10:00;2.50;;;1.90;;
15381;SDS011;7789;51.364;12.358;2022-11-09T08:15:24;4.53;;;1.95;;
15381;SDS011;7789;51.364;12.358;2022-11-09T08:20:59;2.50;;;2.30;;
15381;SDS011;7789;51.364;12.358;2022-11-09T08:26:35;2.30;;;1.70;;
15381;SDS011;7789;51.364;12.358;2022-11-09T08:32:08;3.33;;;1.60;;
15381;SDS011;7789;51.364;12.358;2022-11-09T08:37:41;2.80;;;1.80;;
15381;SDS011;7789;51.364;12.358;2022-11-09T08:43:08;5.28;;;2.85;;
15381;SDS011;7789;51.364;12.358;2022-11-09T08:48:40;9.65;;;2.97;;
15381;SDS011;7789;51.364;12.358;2022-11-09T08:54:05;4.95;;;2.22;;
15381;SDS011;7789;51.364;12.358;2022-11-09T08:59:35;2.17;;;1.95;;
15381;SDS011;7789;51.364;12.358;2022-11-09T09:05:08;4.00;;;2.47;;
15381;SDS011;7789;51.364;12.358;2022-11-09T09:10:53;2.35;;;1.77;;
15381;SDS011;7789;51.364;12.358;2022-11-09T09:16:15;2.08;;;1.80;;
15381;SDS011;7789;51.364;12.358;2022-11-09T09:21:44;1.98;;;1.77;;
15381;SDS011;7789;51.364;12.358;2022-11-09T09:27:10;2.92;;;2.00;;
15381;SDS011;7789;51.364;12.358;2022-11-09T09:32:37;2.65;;;1.90;;
15381;SDS011;7789;51.364;12.358;2022-11-09T09:38:02;2.58;;;1.88;;
15381;SDS011;7789;51.364;12.358;2022-11-09T09:43:32;2.90;;;1.80;;
15381;SDS011;7789;51.364;12.358;2022-11-09T09:49:03;5.65;;;1.80;;
15381;SDS011;7789;51.364;12.358;2022-11-09T09:54:32;2.50;;;1.77;;
15381;SDS011;7789;51.364;12.358;2022-11-09T10:00:09;2.28;;;1.75;;
15381;SDS011;7789;51.364;12.358;2022-11-09T10:05:44;2.42;;;1.75;;
15381;SDS011;7789;51.364;12.358;2022-11-09T10:11:21;2.03;;;1.60;;
15381;SDS011;7789;51.364;12.358;2022-11-09T10:16:58;3.88;;;1.80;;
15381;SDS011;7789;51.364;12.358;2022-11-09T10:22:32;2.63;;;1.92;;
15381;SDS011;7789;51.364;12.358;2022-11-09T10:28:09;3.50;;;1.70;;
15381;SDS011;7789;51.364;12.358;2022-11-09T10:33:39;2.03;;;1.60;;
15381;SDS011;7789;51.364;12.358;2022-11-09T10:39:10;2.40;;;1.55;;
15381;SDS011;7789;51.364;12.358;2022-11-09T10:44:42;2.03;;;1.60;;
15381;SDS011;7789;51.364;12.358;2022-11-09T10:50:20;2.08;;;1.38;;
15381;SDS011;7789;51.364;12.358;2022-11-09T10:55:51;3.97;;;2.00;;
15381;SDS011;7789;51.364;12.358;2022-11-09T11:01:22;1.52;;;1.33;;
15381;SDS011;7789;51.364;12.358;2022-11-09T11:06:49;2.28;;;1.30;;
15381;SDS011;7789;51.364;12.358;2022-11-09T11:12:19;2.05;;;1.40;;
15381;SDS011;7789;51.364;12.358;2022-11-09T11:17:59;1.58;;;1.45;;
15381;SDS011;7789;51.364;12.358;2022-11-09T11:23:41;2.00;;;1.30;;
15381;SDS011;7789;51.364;12.358;2022-11-09T11:29:09;1.40;;;1.10;;
15381;SDS011;7789;51.364;12.358;2022-11-09T11:34:42;1.63;;;1.33;;
15381;SDS011;7789;51.364;12.358;2022-11-09T11:40:24;2.60;;;1.13;;
15381;SDS011;7789;51.364;12.358;2022-11-09T11:46:09;2.90;;;1.02;;
15381;SDS011;7789;51.364;12.358;2022-11-09T11:51:44;1.80;;;1.20;;
15381;SDS011;7789;51.364;12.358;2022-11-09T11:57:25;1.63;;;1.10;;
15381;SDS011;7789;51.364;12.358;2022-11-09T12:03:13;1.50;;;1.38;;
15381;SDS011;7789;51.364;12.358;2022-11-09T12:09:06;1.25;;;1.10;;
15381;SDS011;7789;51.364;12.358;2022-11-09T12:14:57;1.60;;;1.17;;
15381;SDS011;7789;51.364;12.358;2022-11-09T12:20:54;1.30;;;1.20;;
15381;SDS011;7789;51.364;12.358;2022-11-09T12:26:41;0.85;;;0.82;;
15381;SDS011;7789;51.364;12.358;2022-11-09T12:32:48;1.92;;;1.00;;
15381;SDS011;7789;51.364;12.358;2022-11-09T12:38:18;1.50;;;1.20;;
15381;SDS011;7789;51.364;12.358;2022-11-09T12:44:01;2.55;;;1.00;;
15381;SDS011;7789;51.364;12.358;2022-11-09T12:49:41;2.15;;;0.80;;
15381;SDS011;7789;51.364;12.358;2022-11-09T12:55:10;1.10;;;1.00;;
15381;SDS011;7789;51.364;12.358;2022-11-09T13:00:46;0.93;;;0.73;;
15381;SDS011;7789;51.364;12.358;2022-11-09T13:06:17;0.70;;;0.70;;
15381;SDS011;7789;51.364;12.358;2022-11-09T13:11:50;1.40;;;0.85;;
15381;SDS011;7789;51.364;12.358;2022-11-09T13:23:32;1.10;;;1.00;;
15381;SDS011;7789;51.364;12.358;2022-11-09T13:29:21;0.90;;;0.77;;
15381;SDS011;7789;51.364;12.358;2022-11-09T13:34:48;1.73;;;0.90;;
15381;SDS011;7789;51.364;12.358;2022-11-09T13:46:23;0.73;;;0.70;;
15381;SDS011;7789;51.364;12.358;2022-11-09T13:51:53;0.77;;;0.60;;
15381;SDS011;7789;51.364;12.358;2022-11-09T13:57:18;0.93;;;0.70;;
15381;SDS011;7789;51.364;12.358;2022-11-09T14:02:52;1.05;;;0.60;;
15381;SDS011;7789;51.364;12.358;2022-11-09T14:08:19;1.13;;;0.98;;
15381;SDS011;7789;51.364;12.358;2022-11-09T14:13:48;0.70;;;0.65;;
15381;SDS011;7789;51.364;12.358;2022-11-09T14:19:30;1.00;;;0.75;;
15381;SDS011;7789;51.364;12.358;2022-11-09T14:25:08;1.30;;;0.75;;
15381;SDS011;7789;51.364;12.358;2022-11-09T14:30:42;2.38;;;0.90;;
15381;SDS011;7789;51.364;12.358;2022-11-09T14:36:10;1.50;;;0.60;;
15381;SDS011;7789;51.364;12.358;2022-11-09T14:41:38;2.88;;;0.75;;
15381;SDS011;7789;51.364;12.358;2022-11-09T14:47:08;2.15;;;0.85;;
15381;SDS011;7789;51.364;12.358;2022-11-09T14:52:47;1.48;;;0.88;;
15381;SDS011;7789;51.364;12.358;2022-11-09T14:58:16;1.80;;;0.90;;
15381;SDS011;7789;51.364;12.358;2022-11-09T15:03:42;0.77;;;0.60;;
15381;SDS011;7789;51.364;12.358;2022-11-09T15:09:07;3.63;;;0.70;;
15381;SDS011;7789;51.364;12.358;2022-11-09T15:14:38;0.95;;;0.50;;
15381;SDS011;7789;51.364;12.358;2022-11-09T15:25:54;2.25;;;1.00;;
15381;SDS011;7789;51.364;12.358;2022-11-09T15:31:20;1.20;;;0.82;;
15381;SDS011;7789;51.364;12.358;2022-11-09T15:36:51;1.60;;;0.95;;
15381;SDS011;7789;51.364;12.358;2022-11-09T15:42:21;1.00;;;0.80;;
15381;SDS011;7789;51.364;12.358;2022-11-09T15:47:50;1.63;;;1.27;;
15381;SDS011;7789;51.364;12.358;2022-11-09T15:53:15;6.25;;;1.45;;
15381;SDS011;7789;51.364;12.358;2022-11-09T15:58:57;1.52;;;1.10;;
15381;SDS011;7789;51.364;12.358;2022-11-09T16:04:24;2.60;;;1.23;;
15381;SDS011;7789;51.364;12.358;2022-11-09T16:09:49;2.60;;;1.48;;
15381;SDS011;7789;51.364;12.358;2022-11-09T16:15:44;4.25;;;1.17;;
15381;SDS011;7789;51.364;12.358;2022-11-09T16:21:13;1.90;;;1.40;;
15381;SDS011;7789;51.364;12.358;2022-11-09T16:26:37;1.73;;;1.17;;
15381;SDS011;7789;51.364;12.358;2022-11-09T16:32:05;4.25;;;1.40;;
15381;SDS011;7789;51.364;12.358;2022-11-09T16:37:30;3.55;;;1.58;;
15381;SDS011;7789;51.364;12.358;2022-11-09T16:42:57;4.30;;;1.38;;
15381;SDS011;7789;51.364;12.358;2022-11-09T16:48:24;1.63;;;1.30;;
15381;SDS011;7789;51.364;12.358;2022-11-09T16:53:47;2.38;;;1.17;;
15381;SDS011;7789;51.364;12.358;2022-11-09T16:59:16;1.88;;;1.10;;
15381;SDS011;7789;51.364;12.358;2022-11-09T17:04:40;1.10;;;1.00;;
15381;SDS011;7789;51.364;12.358;2022-11-09T17:10:09;2.17;;;1.02;;
15381;SDS011;7789;51.364;12.358;2022-11-09T17:15:38;2.25;;;1.30;;
15381;SDS011;7789;51.364;12.358;2022-11-09T17:21:09;3.15;;;1.58;;
15381;SDS011;7789;51.364;12.358;2022-11-09T17:26:39;2.55;;;1.27;;
15381;SDS011;7789;51.364;12.358;2022-11-09T17:32:13;2.88;;;1.38;;
15381;SDS011;7789;51.364;12.358;2022-11-09T17:37:46;2.40;;;1.40;;
15381;SDS011;7789;51.364;12.358;2022-11-09T17:43:13;3.50;;;2.22;;
15381;SDS011;7789;51.364;12.358;2022-11-09T17:48:40;2.63;;;1.65;;
15381;SDS011;7789;51.364;12.358;2022-11-09T17:54:08;2.90;;;1.60;;
15381;SDS011;7789;51.364;12.358;2022-11-09T17:59:34;3.75;;;1.92;;
15381;SDS011;7789;51.364;12.358;2022-11-09T18:04:57;3.67;;;2.78;;
15381;SDS011;7789;51.364;12.358;2022-11-09T18:10:27;12.77;;;6.85;;
15381;SDS011;7789;51.364;12.358;2022-11-09T18:15:50;9.00;;;5.13;;
15381;SDS011;7789;51.364;12.358;2022-11-09T18:21:14;8.32;;;4.82;;
15381;SDS011;7789;51.364;12.358;2022-11-09T18:26:42;8.80;;;4.97;;
15381;SDS011;7789;51.364;12.358;2022-11-09T18:32:08;8.25;;;4.10;;
15381;SDS011;7789;51.364;12.358;2022-11-09T18:37:34;3.85;;;2.50;;
15381;SDS011;7789;51.364;12.358;2022-11-09T18:48:57;6.20;;;2.30;;
15381;SDS011;7789;51.364;12.358;2022-11-09T18:54:33;3.78;;;1.98;;
15381;SDS011;7789;51.364;12.358;2022-11-09T18:59:59;3.00;;;1.85;;
15381;SDS011;7789;51.364;12.358;2022-11-09T19:05:26;4.18;;;2.10;;
15381;SDS011;7789;51.364;12.358;2022-11-09T19:10:51;4.03;;;1.70;;
15381;SDS011;7789;51.364;12.358;2022-11-09T19:16:27;4.43;;;2.03;;
15381;SDS011;7789;51.364;12.358;2022-11-09T19:21:57;3.35;;;1.80;;
15381;SDS011;7789;51.364;12.358;2022-11-09T19:27:21;3.70;;;1.40;;
15381;SDS011;7789;51.364;12.358;2022-11-09T19:33:00;4.32;;;1.65;;
15381;SDS011;7789;51.364;12.358;2022-11-09T19:38:26;6.47;;;1.90;;
15381;SDS011;7789;51.364;12.358;2022-11-09T19:43:50;3.65;;;2.25;;
15381;SDS011;7789;51.364;12.358;2022-11-09T19:49:25;2.45;;;1.63;;
15381;SDS011;7789;51.364;12.358;2022-11-09T19:54:51;3.70;;;1.95;;
15381;SDS011;7789;51.364;12.358;2022-11-09T20:00:39;2.90;;;1.55;;
15381;SDS011;7789;51.364;12.358;2022-11-09T20:06:07;4.10;;;1.60;;
15381;SDS011;7789;51.364;12.358;2022-11-09T20:11:49;2.58;;;1.58;;
15381;SDS011;7789;51.364;12.358;2022-11-09T20:17:29;4.18;;;1.95;;
15381;SDS011;7789;51.364;12.358;2022-11-09T20:23:03;2.10;;;1.67;;
15381;SDS011;7789;51.364;12.358;2022-11-09T20:28:26;3.20;;;1.88;;
15381;SDS011;7789;51.364;12.358;2022-11-09T20:33:54;4.00;;;1.60;;
15381;SDS011;7789;51.364;12.358;2022-11-09T20:39:32;3.85;;;1.83;;
15381;SDS011;7789;51.364;12.358;2022-11-09T20:45:03;2.65;;;1.40;;
15381;SDS011;7789;51.364;12.358;2022-11-09T20:50:32;4.25;;;2.15;;
15381;SDS011;7789;51.364;12.358;2022-11-09T20:56:10;3.83;;;2.20;;
15381;SDS011;7789;51.364;12.358;2022-11-09T21:01:53;7.32;;;2.72;;
15381;SDS011;7789;51.364;12.358;2022-11-09T21:07:18;3.67;;;2.20;;
15381;SDS011;7789;51.364;12.358;2022-11-09T21:13:08;2.67;;;1.60;;
15381;SDS011;7789;51.364;12.358;2022-11-09T21:18:46;3.13;;;1.80;;
15381;SDS011;7789;51.364;12.358;2022-11-09T21:24:25;2.83;;;1.88;;
15381;SDS011;7789;51.364;12.358;2022-11-09T21:30:11;5.03;;;1.88;;
15381;SDS011;7789;51.364;12.358;2022-11-09T21:35:40;3.17;;;1.92;;
15381;SDS011;7789;51.364;12.358;2022-11-09T21:41:12;3.03;;;1.70;;
15381;SDS011;7789;51.364;12.358;2022-11-09T21:46:50;3.65;;;1.70;;
15381;SDS011;7789;51.364;12.358;2022-11-09T21:52:13;2.67;;;1.70;;
15381;SDS011;7789;51.364;12.358;2022-11-09T21:57:40;3.65;;;1.77;;
15381;SDS011;7789;51.364;12.358;2022-11-09T22:03:08;3.40;;;1.77;;
15381;SDS011;7789;51.364;12.358;2022-11-09T22:08:36;3.63;;;1.88;;
15381;SDS011;7789;51.364;12.358;2022-11-09T22:14:00;2.53;;;1.63;;
15381;SDS011;7789;51.364;12.358;2022-11-09T22:19:45;3.60;;;1.73;;
15381;SDS011;7789;51.364;12.358;2022-11-09T22:25:27;2.92;;;1.85;;
15381;SDS011;7789;51.364;12.358;2022-11-09T22:30:55;2.92;;;1.42;;
15381;SDS011;7789;51.364;12.358;2022-11-09T22:36:31;3.20;;;1.35;;
15381;SDS011;7789;51.364;12.358;2022-11-09T22:42:02;2.33;;;1.23;;
15381;SDS011;7789;51.364;12.358;2022-11-09T22:47:29;3.92;;;1.10;;
15381;SDS011;7789;51.364;12.358;2022-11-09T22:53:03;4.13;;;1.35;;
15381;SDS011;7789;51.364;12.358;2022-11-09T22:58:50;3.00;;;1.17;;
15381;SDS011;7789;51.364;12.358;2022-11-09T23:04:14;2.85;;;1.23;;
15381;SDS011;7789;51.364;12.358;2022-11-09T23:15:23;3.65;;;1.40;;
15381;SDS011;7789;51.364;12.358;2022-11-09T23:20:45;2.67;;;1.20;;
15381;SDS011;7789;51.364;12.358;2022-11-09T23:26:11;1.10;;;1.00;;
15381;SDS011;7789;51.364;12.358;2022-11-09T23:31:40;4.95;;;1.60;;
15381;SDS011;7789;51.364;12.358;2022-11-09T23:37:21;4.03;;;1.48;;
15381;SDS011;7789;51.364;12.358;2022-11-09T23:42:56;2.85;;;1.27;;
15381;SDS011;7789;51.364;12.358;2022-11-09T23:48:24;4.60;;;1.02;;
15381;SDS011;7789;51.364;12.358;2022-11-09T23:53:59;1.88;;;1.02;;
15381;SDS011;7789;51.364;12.358;2022-11-09T23:59:29;2.88;;;1.30;;
